Time;durP1;ratioP1;P1;durP2;ratioP2;P2;SDS_P1;SDS_P2;PMS_P1;PMS_P2;Temp;Humidity;BMP_temperature;BMP_pressure;BME280_temperature;BME280_humidity;BME280_pressure;Samples;Min_cycle;Max_cycle;Signal;HPM_P1;HPM_P2
2021/04/19 00:00:41;;;;;;;8.10;6.35;;;9.80;79.00;;;;;;5013892;28;20108;-62
2021/04/19 00:03:06;;;;;;;8.48;7.00;;;9.80;78.80;;;;;;5013509;28;20392;-62
2021/04/19 00:05:32;;;;;;;9.98;7.97;;;9.80;78.80;;;;;;5013058;28;20053;-62
2021/04/19 00:07:58;;;;;;;8.40;6.82;;;9.80;78.90;;;;;;5013601;28;20128;-62
2021/04/19 00:10:25;;;;;;;9.32;7.75;;;9.80;78.90;;;;;;5013115;28;20029;-62
2021/04/19 00:12:50;;;;;;;9.23;7.10;;;9.80;79.00;;;;;;5013017;28;20032;-62
2021/04/19 00:15:18;;;;;;;8.68;6.97;;;9.80;79.00;;;;;;5013414;28;20101;-62
2021/04/19 00:17:44;;;;;;;8.95;7.40;;;9.80;78.90;;;;;;5013374;28;20466;-62
2021/04/19 00:20:11;;;;;;;8.90;7.07;;;9.90;79.00;;;;;;5013329;28;20033;-62
2021/04/19 00:22:38;;;;;;;9.05;7.53;;;9.90;79.00;;;;;;5013031;28;20034;-62
2021/04/19 00:25:05;;;;;;;8.93;7.00;;;9.90;78.80;;;;;;5013352;28;20026;-62
2021/04/19 00:27:31;;;;;;;8.98;7.30;;;9.90;78.80;;;;;;5012825;28;20101;-62
2021/04/19 00:29:57;;;;;;;8.50;7.18;;;9.90;78.60;;;;;;5013008;28;20442;-62
2021/04/19 00:32:22;;;;;;;8.30;6.38;;;9.80;78.40;;;;;;5013137;28;20474;-62
2021/04/19 00:34:48;;;;;;;8.10;6.53;;;9.70;78.20;;;;;;5012902;28;20401;-62
2021/04/19 00:37:14;;;;;;;8.55;6.82;;;9.70;78.20;;;;;;5013122;28;20036;-62
2021/04/19 00:39:40;;;;;;;7.78;6.50;;;9.70;78.40;;;;;;5012874;28;20022;-62
2021/04/19 00:42:07;;;;;;;8.60;7.30;;;9.60;78.60;;;;;;5012843;28;20104;-62
2021/04/19 00:44:32;;;;;;;7.72;6.50;;;9.60;78.70;;;;;;5015510;28;20113;-62
2021/04/19 00:46:58;;;;;;;8.32;6.60;;;9.50;79.00;;;;;;5016740;28;20116;-62
2021/04/19 00:49:24;;;;;;;8.02;6.38;;;9.50;78.80;;;;;;5016731;28;20076;-62
2021/04/19 00:51:54;;;;;;;7.65;6.20;;;9.40;78.80;;;;;;5016515;28;20057;-62
2021/04/19 00:54:21;;;;;;;7.72;6.05;;;9.30;78.80;;;;;;5016594;28;20389;-62
2021/04/19 00:56:48;;;;;;;7.68;6.07;;;9.30;78.90;;;;;;5016359;28;20435;-62
2021/04/19 00:59:14;;;;;;;8.63;6.10;;;9.20;79.00;;;;;;5006039;28;20145;-62
2021/04/19 01:01:39;;;;;;;8.60;6.45;;;9.20;79.00;;;;;;5016114;28;20045;-62
2021/04/19 01:04:05;;;;;;;8.02;6.43;;;9.10;79.10;;;;;;5016477;28;20030;-61
2021/04/19 01:06:31;;;;;;;7.55;6.15;;;9.10;79.20;;;;;;5016142;28;20137;-62
2021/04/19 01:08:57;;;;;;;8.70;6.00;;;9.10;79.20;;;;;;5015438;28;20030;-62
2021/04/19 01:11:22;;;;;;;8.23;6.68;;;9.10;79.50;;;;;;5016146;28;20029;-62
2021/04/19 01:13:48;;;;;;;7.78;6.00;;;9.10;79.40;;;;;;5016172;28;20378;-62
2021/04/19 01:16:14;;;;;;;8.77;6.60;;;9.10;79.50;;;;;;5015975;28;20119;-62
2021/04/19 01:18:39;;;;;;;8.70;6.63;;;9.00;79.50;;;;;;5016091;28;20017;-62
2021/04/19 01:21:05;;;;;;;8.27;6.40;;;9.00;79.40;;;;;;5016109;28;20022;-62
2021/04/19 01:23:31;;;;;;;8.77;6.95;;;9.00;79.40;;;;;;5016035;28;20057;-62
2021/04/19 01:25:57;;;;;;;8.38;6.60;;;9.00;79.40;;;;;;5016020;28;20018;-62
2021/04/19 01:28:22;;;;;;;8.32;6.60;;;9.00;79.60;;;;;;5015928;28;20141;-62
2021/04/19 01:30:50;;;;;;;8.05;5.95;;;9.00;79.60;;;;;;5015957;28;20044;-62
2021/04/19 01:33:18;;;;;;;8.57;6.30;;;8.90;79.40;;;;;;5016048;28;20040;-62
2021/04/19 01:35:45;;;;;;;6.97;5.72;;;8.90;79.50;;;;;;5016064;28;20481;-62
2021/04/19 01:38:12;;;;;;;7.07;5.63;;;8.90;79.30;;;;;;5015899;28;20029;-62
2021/04/19 01:40:38;;;;;;;6.90;5.13;;;8.90;79.40;;;;;;5015683;28;20041;-62
2021/04/19 01:43:05;;;;;;;6.88;5.30;;;8.80;79.30;;;;;;5015646;28;20038;-62
2021/04/19 01:45:30;;;;;;;7.03;5.80;;;8.80;79.30;;;;;;5015587;28;20030;-62
2021/04/19 01:47:57;;;;;;;6.30;4.80;;;8.80;79.30;;;;;;5015639;28;20038;-62
2021/04/19 01:50:28;;;;;;;7.53;5.80;;;8.80;79.20;;;;;;5015510;28;20065;-62
2021/04/19 01:52:56;;;;;;;8.43;5.72;;;8.80;80.00;;;;;;5015444;28;20026;-62
2021/04/19 01:55:25;;;;;;;6.75;5.30;;;8.70;79.40;;;;;;5014637;28;20056;-62
2021/04/19 01:58:14;;;;;;;6.90;4.97;;;8.70;79.40;;;;;;5015567;28;20018;-62
2021/04/19 02:00:43;;;;;;;7.32;5.68;;;8.70;79.40;;;;;;5014602;28;20042;-62
2021/04/19 02:03:16;;;;;;;7.35;5.18;;;8.70;79.50;;;;;;5015277;28;20033;-62
2021/04/19 02:06:02;;;;;;;7.80;6.20;;;8.70;79.50;;;;;;5015170;28;20073;-62
2021/04/19 02:08:49;;;;;;;6.53;4.90;;;8.70;79.30;;;;;;5015414;28;20018;-62
2021/04/19 02:11:44;;;;;;;7.88;5.72;;;8.70;79.40;;;;;;5015233;28;20030;-62
2021/04/19 02:14:47;;;;;;;7.90;5.68;;;8.80;79.40;;;;;;4993827;28;20060;-62
2021/04/19 02:17:21;;;;;;;6.90;5.10;;;8.80;79.20;;;;;;5015328;28;20088;-62
2021/04/19 02:20:02;;;;;;;7.65;5.82;;;8.80;79.10;;;;;;5015066;28;20023;-62
2021/04/19 02:22:52;;;;;;;7.17;5.27;;;8.80;78.90;;;;;;5015054;28;20120;-62
2021/04/19 02:25:25;;;;;;;7.07;5.53;;;8.80;78.90;;;;;;5014973;28;20029;-62
2021/04/19 02:27:58;;;;;;;7.75;5.95;;;8.70;78.70;;;;;;5015055;28;20022;-62
2021/04/19 02:30:33;;;;;;;7.32;5.68;;;8.70;78.90;;;;;;5015088;28;20695;-62
2021/04/19 02:32:59;;;;;;;8.00;5.65;;;8.70;78.90;;;;;;5014755;28;20385;-62
2021/04/19 02:35:26;;;;;;;8.32;5.60;;;8.70;79.00;;;;;;5002037;28;20022;-62
2021/04/19 02:37:54;;;;;;;8.05;6.00;;;8.70;79.10;;;;;;4995198;28;20018;-62
2021/04/19 02:40:21;;;;;;;8.82;6.65;;;8.70;79.20;;;;;;4995091;28;20018;-62
2021/04/19 02:42:50;;;;;;;8.25;6.00;;;8.70;79.10;;;;;;4995045;28;20026;-62
2021/04/19 02:45:16;;;;;;;7.30;5.50;;;8.70;79.10;;;;;;4994984;28;20033;-62
2021/04/19 02:47:44;;;;;;;8.93;6.13;;;8.70;79.10;;;;;;4994825;28;20102;-62
2021/04/19 02:50:17;;;;;;;6.90;5.45;;;8.60;79.10;;;;;;4994827;28;20026;-62
2021/04/19 02:52:45;;;;;;;9.00;5.78;;;8.60;79.20;;;;;;4995016;28;20153;-62
2021/04/19 02:55:12;;;;;;;7.30;5.32;;;8.60;79.40;;;;;;4994632;28;20026;-62
2021/04/19 02:58:12;;;;;;;7.70;5.78;;;8.60;79.40;;;;;;4994689;28;20023;-62
2021/04/19 03:00:46;;;;;;;7.28;5.60;;;8.60;79.10;;;;;;4991581;28;20049;-62
2021/04/19 03:03:26;;;;;;;7.47;5.32;;;8.60;79.20;;;;;;4994586;28;20026;-62
2021/04/19 03:05:54;;;;;;;6.47;5.15;;;8.60;79.20;;;;;;4994360;28;20446;-62
2021/04/19 03:08:21;;;;;;;7.30;5.82;;;8.60;79.20;;;;;;4994531;28;20026;-62
2021/04/19 03:10:57;;;;;;;8.40;5.90;;;8.60;79.30;;;;;;4994230;28;20109;-62
2021/04/19 03:13:25;;;;;;;8.25;6.03;;;8.60;79.40;;;;;;4994041;28;20033;-62
2021/04/19 03:15:55;;;;;;;9.38;6.25;;;8.70;79.80;;;;;;4993987;28;20026;-62
2021/04/19 03:18:23;;;;;;;7.23;5.80;;;8.70;79.60;;;;;;4996552;28;20025;-62
2021/04/19 03:21:04;;;;;;;7.95;5.65;;;8.70;79.60;;;;;;5013502;28;20647;-62
2021/04/19 03:23:35;;;;;;;7.82;5.75;;;8.80;79.50;;;;;;5013545;28;20037;-62
2021/04/19 03:26:02;;;;;;;7.40;5.23;;;8.80;79.30;;;;;;5013423;28;20026;-62
2021/04/19 03:28:30;;;;;;;7.35;5.85;;;8.80;79.40;;;;;;5013549;28;20080;-62
2021/04/19 03:30:56;;;;;;;7.47;6.07;;;8.90;79.50;;;;;;5013320;28;20101;-62
2021/04/19 03:33:23;;;;;;;8.45;6.00;;;8.90;79.40;;;;;;5013586;28;20157;-62
2021/04/19 03:35:50;;;;;;;8.52;6.30;;;8.90;79.40;;;;;;5013155;28;20014;-62
2021/04/19 03:38:19;;;;;;;7.00;5.20;;;8.90;79.50;;;;;;5013368;28;20052;-62
2021/04/19 03:40:47;;;;;;;8.57;6.10;;;9.00;79.50;;;;;;5013315;28;20026;-62
2021/04/19 03:43:17;;;;;;;7.80;6.13;;;9.00;79.40;;;;;;5013280;28;20476;-62
2021/04/19 03:45:44;;;;;;;7.93;6.20;;;9.10;79.60;;;;;;5013252;28;20025;-62
2021/04/19 03:48:15;;;;;;;7.93;5.95;;;9.20;79.70;;;;;;5013138;28;20021;-62
2021/04/19 03:50:48;;;;;;;7.60;5.93;;;9.20;79.50;;;;;;5013358;28;20084;-62
2021/04/19 03:53:16;;;;;;;8.75;6.10;;;9.40;79.50;;;;;;5013101;28;20125;-62
2021/04/19 03:55:43;;;;;;;7.88;5.82;;;9.40;79.20;;;;;;5013099;28;20053;-62
2021/04/19 03:58:12;;;;;;;7.70;5.63;;;9.50;79.30;;;;;;5013114;28;20026;-62
2021/04/19 04:00:41;;;;;;;7.45;6.30;;;9.60;79.10;;;;;;5013024;28;20504;-62
2021/04/19 04:03:08;;;;;;;8.65;6.25;;;9.70;79.00;;;;;;5013141;28;20033;-62
2021/04/19 04:05:34;;;;;;;7.20;5.68;;;9.80;78.60;;;;;;5012907;28;20505;-62
2021/04/19 04:08:01;;;;;;;7.65;5.82;;;9.90;78.40;;;;;;5013028;28;20442;-62
2021/04/19 04:10:27;;;;;;;7.78;5.97;;;10.00;78.40;;;;;;5012881;28;20033;-62
2021/04/19 04:12:54;;;;;;;7.40;6.10;;;10.10;78.10;;;;;;5012960;28;20445;-62
2021/04/19 04:15:20;;;;;;;7.82;6.35;;;10.20;77.90;;;;;;5012983;28;20052;-62
2021/04/19 04:17:46;;;;;;;8.00;6.70;;;10.20;77.20;;;;;;5008691;28;20485;-62
2021/04/19 04:20:12;;;;;;;8.73;6.18;;;10.30;77.30;;;;;;4997988;28;20430;-62
2021/04/19 04:22:39;;;;;;;8.32;6.47;;;10.40;77.30;;;;;;5011034;28;20048;-62
2021/04/19 04:25:06;;;;;;;7.82;6.25;;;10.50;76.80;;;;;;5012088;28;20478;-62
2021/04/19 04:27:32;;;;;;;6.78;5.25;;;10.60;76.20;;;;;;5015298;28;20731;-62
2021/04/19 04:29:58;;;;;;;8.27;5.95;;;10.60;75.90;;;;;;5020093;28;20366;-62
2021/04/19 04:32:23;;;;;;;10.27;7.25;;;10.70;76.00;;;;;;5019929;28;20030;-62
2021/04/19 04:34:49;;;;;;;9.15;7.22;;;10.80;76.60;;;;;;5017406;28;20022;-62
2021/04/19 04:37:15;;;;;;;8.95;6.90;;;11.00;76.70;;;;;;5000232;28;20031;-62
2021/04/19 04:39:40;;;;;;;7.47;6.43;;;11.40;76.40;;;;;;5000423;28;20027;-62
2021/04/19 04:42:11;;;;;;;8.23;6.13;;;11.80;75.50;;;;;;5000211;28;20086;-62
2021/04/19 04:44:39;;;;;;;7.20;5.97;;;12.20;74.60;;;;;;5000337;28;20057;-62
2021/04/19 04:47:31;;;;;;;7.65;5.93;;;12.50;73.60;;;;;;5000276;28;20033;-62
2021/04/19 04:50:12;;;;;;;6.57;5.40;;;12.90;72.50;;;;;;5000004;28;20034;-62
2021/04/19 04:52:59;;;;;;;7.10;5.88;;;13.10;72.10;;;;;;5000069;28;20035;-62
2021/04/19 04:55:26;;;;;;;6.50;5.78;;;13.40;71.40;;;;;;5000216;28;20506;-62
2021/04/19 04:57:52;;;;;;;7.95;6.53;;;13.70;70.80;;;;;;4999997;28;20027;-62
2021/04/19 05:00:20;;;;;;;6.35;5.45;;;14.00;69.90;;;;;;5000148;28;20026;-62
2021/04/19 05:02:48;;;;;;;7.18;5.80;;;14.40;69.10;;;;;;5000417;28;20120;-61
2021/04/19 05:05:16;;;;;;;6.95;5.95;;;14.70;67.90;;;;;;5000127;28;20121;-62
2021/04/19 05:07:42;;;;;;;7.20;5.75;;;15.00;66.90;;;;;;5000463;28;20089;-62
2021/04/19 05:10:09;;;;;;;6.63;5.90;;;15.20;66.10;;;;;;5000137;28;20026;-62
2021/04/19 05:12:36;;;;;;;8.23;7.05;;;15.40;65.20;;;;;;5003617;28;20402;-63
2021/04/19 05:15:09;;;;;;;10.25;8.15;;;15.60;64.70;;;;;;4999577;28;20022;-62
2021/04/19 05:17:36;;;;;;;7.63;6.15;;;15.90;64.00;;;;;;4998399;28;20030;-61
2021/04/19 05:20:04;;;;;;;7.57;6.40;;;16.20;64.00;;;;;;4998768;28;20054;-61
2021/04/19 05:22:30;;;;;;;7.40;6.20;;;16.50;63.00;;;;;;4998699;28;20019;-61
2021/04/19 05:24:55;;;;;;;6.28;5.50;;;16.80;61.80;;;;;;5013658;28;20083;-61
2021/04/19 05:27:21;;;;;;;6.70;5.60;;;16.90;61.20;;;;;;5015273;28;20041;-61
2021/04/19 05:29:47;;;;;;;6.88;6.18;;;17.10;60.40;;;;;;5013550;28;20032;-61
2021/04/19 05:32:15;;;;;;;7.50;5.70;;;17.30;59.00;;;;;;5015781;28;20030;-61
2021/04/19 05:34:41;;;;;;;6.45;5.25;;;17.50;58.00;;;;;;5014371;28;20445;-61
2021/04/19 05:37:09;;;;;;;6.40;5.70;;;17.60;57.10;;;;;;5016292;28;20076;-61
2021/04/19 05:39:35;;;;;;;6.03;5.43;;;17.40;56.80;;;;;;5011149;28;20033;-61
2021/04/19 05:42:02;;;;;;;6.20;5.30;;;17.00;57.00;;;;;;5005291;28;20033;-61
2021/04/19 05:44:30;;;;;;;6.63;5.80;;;16.60;57.70;;;;;;5014201;28;20041;-61
2021/04/19 05:46:56;;;;;;;6.13;5.28;;;16.10;58.20;;;;;;5002772;28;20481;-61
2021/04/19 05:49:21;;;;;;;7.18;5.13;;;15.80;59.10;;;;;;5003246;28;20026;-60
2021/04/19 05:51:49;;;;;;;6.32;5.55;;;15.40;59.70;;;;;;4994590;28;20144;-60
2021/04/19 05:54:17;;;;;;;6.90;5.93;;;15.10;60.30;;;;;;5001991;28;20466;-61
2021/04/19 05:57:02;;;;;;;6.38;5.55;;;14.70;60.80;;;;;;5003216;28;20046;-61
2021/04/19 05:59:49;;;;;;;6.18;5.38;;;14.50;61.30;;;;;;5006514;28;20022;-62
2021/04/19 06:02:26;;;;;;;6.13;5.45;;;14.30;61.90;;;;;;5009772;28;20026;-62
2021/04/19 06:04:56;;;;;;;7.85;6.13;;;14.20;62.60;;;;;;5003803;28;20025;-62
2021/04/19 06:08:10;;;;;;;6.80;5.60;;;14.10;63.00;;;;;;5005458;28;20124;-63
2021/04/19 06:11:01;;;;;;;6.28;5.43;;;14.10;62.90;;;;;;4947560;28;20034;-62
2021/04/19 06:13:28;;;;;;;7.18;6.13;;;14.00;63.10;;;;;;5002187;28;20886;-63
2021/04/19 06:15:58;;;;;;;6.72;6.03;;;13.90;63.30;;;;;;5003769;28;21566;-63
2021/04/19 06:18:25;;;;;;;6.88;6.18;;;13.90;63.40;;;;;;5002319;28;20537;-62
2021/04/19 06:20:53;;;;;;;6.40;5.68;;;13.80;63.60;;;;;;5000282;28;20347;-62
2021/04/19 06:23:20;;;;;;;8.18;6.20;;;13.80;63.50;;;;;;5003409;28;20033;-63
2021/04/19 06:25:46;;;;;;;6.85;5.57;;;13.70;63.70;;;;;;5006115;28;20033;-62
2021/04/19 06:28:12;;;;;;;6.22;5.53;;;13.60;63.80;;;;;;5003131;28;20060;-64
2021/04/19 06:30:41;;;;;;;7.53;5.88;;;13.60;63.90;;;;;;5002351;28;20052;-61
2021/04/19 06:33:09;;;;;;;7.07;6.30;;;13.60;64.00;;;;;;4997086;28;20083;-62
2021/04/19 06:35:35;;;;;;;8.40;6.72;;;13.60;64.20;;;;;;4999047;28;20026;-61
2021/04/19 06:38:01;;;;;;;7.03;6.18;;;13.50;64.20;;;;;;4998438;28;20068;-57
2021/04/19 06:40:28;;;;;;;8.20;6.28;;;13.60;64.60;;;;;;4996240;28;21093;-60
2021/04/19 06:42:56;;;;;;;8.75;7.00;;;13.50;64.40;;;;;;4996609;28;20402;-58
2021/04/19 06:45:22;;;;;;;8.52;6.70;;;13.60;64.50;;;;;;4999085;28;20053;-60
2021/04/19 06:47:51;;;;;;;7.65;6.55;;;13.60;64.70;;;;;;4997954;28;20053;-62
2021/04/19 06:50:16;;;;;;;6.97;6.03;;;13.60;64.70;;;;;;5003539;28;20037;-60
2021/04/19 06:52:47;;;;;;;8.45;7.15;;;13.70;64.90;;;;;;5001297;28;20401;-62
2021/04/19 06:55:14;;;;;;;8.30;6.93;;;13.60;64.80;;;;;;4996653;28;20386;-60
2021/04/19 06:57:44;;;;;;;7.97;6.75;;;13.70;65.00;;;;;;4995183;28;20796;-59
2021/04/19 07:00:11;;;;;;;8.73;6.43;;;13.70;65.00;;;;;;4997924;28;20072;-58
2021/04/19 07:02:46;;;;;;;8.68;6.75;;;13.70;65.20;;;;;;4998213;28;20041;-61
2021/04/19 07:05:13;;;;;;;7.63;6.57;;;13.70;65.10;;;;;;4992615;28;20036;-62
2021/04/19 07:08:04;;;;;;;7.38;6.47;;;13.70;65.10;;;;;;4999755;28;20033;-63
2021/04/19 07:10:32;;;;;;;7.85;6.63;;;13.70;65.30;;;;;;4996477;28;20034;-61
2021/04/19 07:12:58;;;;;;;7.90;6.88;;;13.70;65.30;;;;;;4990293;28;20049;-58
2021/04/19 07:15:26;;;;;;;7.93;6.43;;;13.70;65.00;;;;;;4996312;28;20052;-60
2021/04/19 07:17:52;;;;;;;7.85;6.75;;;13.70;64.80;;;;;;4992971;28;20036;-62
2021/04/19 07:20:18;;;;;;;8.02;7.05;;;13.60;64.90;;;;;;4994316;28;20022;-60
2021/04/19 07:22:44;;;;;;;8.38;7.10;;;13.60;65.00;;;;;;4999097;28;20041;-60
2021/04/19 07:25:11;;;;;;;8.80;7.72;;;13.60;65.20;;;;;;4993998;28;20121;-57
2021/04/19 07:27:40;;;;;;;8.98;7.28;;;13.60;65.30;;;;;;4996137;28;20042;-61
2021/04/19 07:30:08;;;;;;;8.55;7.35;;;13.50;65.40;;;;;;4984028;28;20127;-62
2021/04/19 07:32:36;;;;;;;8.95;6.85;;;13.50;65.70;;;;;;4993783;28;20034;-62
2021/04/19 07:35:05;;;;;;;8.07;7.28;;;13.50;65.70;;;;;;4996626;28;20030;-61
2021/04/19 07:37:31;;;;;;;8.45;7.15;;;13.50;66.10;;;;;;4989263;28;20532;-61
2021/04/19 07:39:57;;;;;;;8.43;7.00;;;13.50;66.10;;;;;;4985458;28;20497;-61
2021/04/19 07:42:23;;;;;;;8.70;7.75;;;13.50;66.00;;;;;;4992153;28;20040;-61
2021/04/19 07:44:51;;;;;;;7.40;6.50;;;13.50;66.10;;;;;;4992327;28;20049;-61
2021/04/19 07:47:31;;;;;;;8.77;7.10;;;13.50;66.10;;;;;;4990661;28;20030;-62
2021/04/19 07:49:58;;;;;;;7.70;6.65;;;13.50;65.90;;;;;;4992701;28;20037;-62
2021/04/19 07:52:28;;;;;;;7.45;6.53;;;13.50;65.90;;;;;;4987984;28;20091;-62
2021/04/19 07:55:03;;;;;;;8.13;7.32;;;13.50;65.80;;;;;;4988623;28;20026;-63
2021/04/19 07:57:28;;;;;;;7.97;6.68;;;13.40;65.90;;;;;;4989032;28;20069;-63
2021/04/19 07:59:54;;;;;;;7.78;6.80;;;13.40;65.80;;;;;;4989285;28;20634;-61
2021/04/19 08:02:21;;;;;;;9.05;7.50;;;13.40;66.10;;;;;;4992135;28;20041;-62
2021/04/19 08:04:51;;;;;;;8.15;7.35;;;13.40;65.90;;;;;;4992787;28;20613;-59
2021/04/19 08:07:25;;;;;;;10.40;7.75;;;13.40;65.90;;;;;;4992409;28;20064;-59
2021/04/19 08:10:00;;;;;;;8.50;7.05;;;13.40;65.70;;;;;;4994895;28;20045;-62
2021/04/19 08:12:35;;;;;;;7.80;6.88;;;13.40;65.60;;;;;;4989462;28;20037;-61
2021/04/19 08:15:03;;;;;;;7.97;7.05;;;13.40;65.70;;;;;;4991893;28;20030;-63
2021/04/19 08:17:31;;;;;;;8.65;7.57;;;13.50;65.30;;;;;;4975928;28;20049;-61
2021/04/19 08:19:58;;;;;;;9.50;8.05;;;13.50;65.20;;;;;;4990987;28;20378;-62
2021/04/19 08:22:31;;;;;;;7.88;7.03;;;13.50;65.30;;;;;;4977779;28;20038;-62
2021/04/19 08:25:23;;;;;;;8.23;7.40;;;13.50;65.00;;;;;;4991992;28;20041;-62
2021/04/19 08:28:00;;;;;;;;;;;13.50;65.00;;;;;;4988290;28;20034;-63
2021/04/19 08:30:29;;;;;;;6.60;5.90;;;13.40;65.00;;;;;;4982768;28;20706;-65
2021/04/19 08:32:57;;;;;;;6.95;5.80;;;13.50;65.50;;;;;;4985054;28;20033;-61
2021/04/19 08:35:25;;;;;;;7.72;6.40;;;13.60;65.30;;;;;;4984236;28;20026;-63
2021/04/19 08:37:52;;;;;;;7.22;6.38;;;13.60;65.20;;;;;;4988347;28;20028;-63
2021/04/19 08:40:18;;;;;;;7.40;6.45;;;13.70;65.10;;;;;;4989765;28;20049;-63
2021/04/19 08:42:44;;;;;;;6.97;6.28;;;13.80;65.00;;;;;;4997054;28;20053;-63
2021/04/19 08:45:11;;;;;;;8.27;6.88;;;13.90;64.80;;;;;;4991756;28;20747;-61
2021/04/19 08:47:38;;;;;;;8.82;6.80;;;13.90;64.50;;;;;;4990159;28;20041;-63
2021/04/19 08:50:07;;;;;;;7.10;6.38;;;13.90;64.40;;;;;;4989387;28;20088;-63
2021/04/19 08:52:34;;;;;;;7.40;6.63;;;14.00;64.30;;;;;;4989392;28;20536;-61
2021/04/19 08:55:00;;;;;;;7.07;6.35;;;14.00;64.10;;;;;;4993163;28;20057;-62
2021/04/19 08:57:26;;;;;;;9.45;7.70;;;14.00;64.00;;;;;;4992462;28;20553;-59
2021/04/19 08:59:53;;;;;;;7.38;6.57;;;14.10;63.80;;;;;;4985218;28;20033;-60
2021/04/19 09:02:21;;;;;;;7.68;6.78;;;14.20;63.60;;;;;;4987546;28;20033;-60
2021/04/19 09:05:05;;;;;;;7.05;6.22;;;14.20;63.40;;;;;;4991923;28;20045;-62
2021/04/19 09:07:32;;;;;;;8.55;6.53;;;14.20;63.20;;;;;;4991714;28;20042;-61
2021/04/19 09:09:58;;;;;;;8.50;6.55;;;14.30;63.00;;;;;;4998583;28;20042;-59
2021/04/19 09:12:29;;;;;;;7.78;6.20;;;14.30;62.90;;;;;;4996215;28;20034;-61
2021/04/19 09:15:28;;;;;;;7.03;6.00;;;14.40;62.70;;;;;;4995100;28;20046;-59
2021/04/19 09:18:17;;;;;;;6.85;5.28;;;14.40;62.70;;;;;;4975457;28;20080;-61
2021/04/19 09:20:50;;;;;;;5.50;4.82;;;14.40;62.10;;;;;;4997993;28;20040;-62
2021/04/19 09:23:20;;;;;;;6.55;5.40;;;14.50;62.00;;;;;;4990482;28;20033;-60
2021/04/19 09:25:47;;;;;;;5.65;4.97;;;14.50;61.80;;;;;;4988005;28;20116;-60
2021/04/19 09:28:12;;;;;;;5.47;4.78;;;14.50;61.80;;;;;;4992716;28;20120;-61
2021/04/19 09:30:45;;;;;;;5.70;5.10;;;14.60;61.50;;;;;;4994996;28;20486;-60
2021/04/19 09:33:11;;;;;;;6.28;4.95;;;14.60;61.20;;;;;;4993908;28;20512;-61
2021/04/19 09:35:39;;;;;;;6.60;5.68;;;14.60;61.00;;;;;;4994884;28;20114;-62
2021/04/19 09:38:10;;;;;;;7.78;5.50;;;14.60;60.80;;;;;;4999719;28;20513;-61
2021/04/19 09:40:54;;;;;;;6.00;5.28;;;14.60;60.70;;;;;;4996645;28;20691;-59
2021/04/19 09:43:39;;;;;;;6.18;4.93;;;14.60;60.50;;;;;;4992862;28;20805;-58
2021/04/19 09:46:27;;;;;;;6.18;5.05;;;14.60;60.50;;;;;;4995689;28;20057;-59
2021/04/19 09:48:53;;;;;;;5.60;4.75;;;14.60;60.50;;;;;;4993993;28;20042;-59
2021/04/19 09:51:19;;;;;;;6.88;5.70;;;14.60;60.60;;;;;;4995500;28;20740;-61
2021/04/19 09:53:46;;;;;;;5.82;4.72;;;14.60;60.30;;;;;;4992553;28;20091;-60
2021/04/19 09:56:12;;;;;;;5.22;4.72;;;14.60;60.20;;;;;;4990782;28;20766;-60
2021/04/19 09:58:41;;;;;;;5.50;4.53;;;14.60;60.10;;;;;;4992548;28;20026;-59
2021/04/19 10:01:07;;;;;;;4.75;4.22;;;14.50;60.00;;;;;;4990615;28;20026;-60
2021/04/19 10:03:34;;;;;;;4.40;4.00;;;14.60;59.60;;;;;;4994636;28;20065;-60
2021/04/19 10:06:04;;;;;;;4.85;4.15;;;14.60;59.50;;;;;;4991799;28;20470;-60
2021/04/19 10:08:40;;;;;;;5.10;4.35;;;14.70;59.10;;;;;;4990821;28;20030;-60
2021/04/19 10:11:06;;;;;;;4.43;3.97;;;14.80;58.80;;;;;;4999344;28;20033;-60
2021/04/19 10:13:36;;;;;;;4.88;4.03;;;14.80;58.60;;;;;;4995585;28;20045;-58
2021/04/19 10:16:08;;;;;;;4.82;3.88;;;14.90;58.30;;;;;;4996242;28;20120;-60
2021/04/19 10:18:36;;;;;;;4.63;4.03;;;15.00;58.20;;;;;;4997215;28;20038;-59
2021/04/19 10:21:03;;;;;;;4.53;3.83;;;15.00;58.00;;;;;;4997162;28;20036;-59
2021/04/19 10:23:43;;;;;;;4.97;4.18;;;15.10;57.80;;;;;;4968001;28;20118;-59
2021/04/19 10:26:10;;;;;;;4.57;3.92;;;15.30;57.50;;;;;;4991237;28;20034;-60
2021/04/19 10:28:40;;;;;;;4.93;3.92;;;15.40;57.20;;;;;;4995557;28;20038;-60
2021/04/19 10:31:20;;;;;;;5.43;4.40;;;15.50;57.10;;;;;;4993767;28;20038;-58
2021/04/19 10:33:51;;;;;;;4.93;3.90;;;15.60;57.10;;;;;;4996309;28;20029;-59
2021/04/19 10:36:17;;;;;;;;;;;15.60;56.90;;;;;;4993580;28;20497;-57
2021/04/19 10:38:51;;;;;;;4.88;3.90;;;15.60;57.20;;;;;;4987968;28;19918;-62
2021/04/19 10:41:29;;;;;;;5.75;4.20;;;15.70;57.00;;;;;;4991383;28;20026;-61
2021/04/19 10:43:55;;;;;;;4.78;4.28;;;15.70;56.50;;;;;;4996709;28;20049;-60
2021/04/19 10:46:23;;;;;;;4.75;4.07;;;15.70;56.40;;;;;;4995303;28;20030;-60
2021/04/19 10:48:49;;;;;;;4.10;3.70;;;15.70;56.00;;;;;;4994170;28;20030;-60
2021/04/19 10:51:18;;;;;;;6.15;4.53;;;15.70;55.70;;;;;;4995127;28;20088;-60
2021/04/19 10:53:44;;;;;;;5.45;4.18;;;15.70;55.50;;;;;;5000470;28;20030;-58
2021/04/19 10:56:14;;;;;;;4.45;4.00;;;15.70;55.70;;;;;;4990586;28;20038;-60
2021/04/19 10:58:41;;;;;;;5.75;4.07;;;15.70;55.60;;;;;;4985026;28;20537;-61
2021/04/19 11:01:07;;;;;;;4.43;3.83;;;15.70;55.60;;;;;;4987744;28;20026;-63
2021/04/19 11:03:36;;;;;;;4.97;4.22;;;15.70;55.50;;;;;;4985290;28;20115;-62
2021/04/19 11:06:07;;;;;;;4.50;4.00;;;15.70;55.40;;;;;;4979812;28;23186;-61
2021/04/19 11:09:08;;;;;;;4.38;3.90;;;15.70;55.10;;;;;;4987725;28;20022;-62
2021/04/19 11:11:39;;;;;;;4.70;3.97;;;15.70;55.10;;;;;;4990003;28;20041;-62
2021/04/19 11:14:19;;;;;;;5.03;4.35;;;15.80;55.30;;;;;;4993188;28;20030;-61
2021/04/19 11:17:05;;;;;;;5.53;4.70;;;15.80;55.00;;;;;;4988802;28;20536;-61
2021/04/19 11:19:45;;;;;;;5.25;4.07;;;15.80;54.90;;;;;;4976454;28;20040;-60
2021/04/19 11:22:24;;;;;;;6.13;4.80;;;15.80;54.70;;;;;;4990938;28;20164;-61
2021/04/19 11:24:51;;;;;;;4.38;3.90;;;15.70;54.70;;;;;;4995064;28;20065;-63
2021/04/19 11:27:25;;;;;;;6.32;4.78;;;15.80;54.80;;;;;;4991330;28;20034;-61
2021/04/19 11:29:51;;;;;;;6.20;4.88;;;15.80;54.70;;;;;;4987439;28;20034;-61
2021/04/19 11:32:32;;;;;;;6.25;4.85;;;15.80;54.70;;;;;;4990470;28;20038;-60
2021/04/19 11:34:59;;;;;;;4.55;4.07;;;15.80;54.50;;;;;;4989222;28;20051;-60
2021/04/19 11:37:38;;;;;;;4.75;4.22;;;15.80;54.50;;;;;;4991178;28;20040;-60
2021/04/19 11:40:06;;;;;;;5.45;4.22;;;15.80;54.30;;;;;;4980629;28;20165;-62
2021/04/19 11:42:36;;;;;;;5.32;4.60;;;15.80;54.60;;;;;;4994096;28;20703;-62
2021/04/19 11:45:04;;;;;;;5.43;4.57;;;15.80;54.50;;;;;;4988470;28;20030;-61
2021/04/19 11:47:33;;;;;;;4.82;3.92;;;15.80;54.60;;;;;;4993994;28;20038;-60
2021/04/19 11:49:59;;;;;;;5.43;4.13;;;15.90;54.30;;;;;;4988430;28;20065;-60
2021/04/19 11:52:25;;;;;;;4.47;3.55;;;15.90;54.10;;;;;;4988338;28;20552;-60
2021/04/19 11:54:51;;;;;;;3.95;3.42;;;15.90;54.30;;;;;;4993482;28;20117;-63
2021/04/19 11:57:17;;;;;;;6.18;4.50;;;15.90;54.20;;;;;;4988595;28;20034;-62
2021/04/19 11:59:42;;;;;;;5.05;4.30;;;15.90;54.30;;;;;;4990453;28;20185;-61
2021/04/19 12:02:09;;;;;;;5.53;4.28;;;15.90;54.10;;;;;;4994230;28;20096;-62
2021/04/19 12:04:35;;;;;;;6.22;4.90;;;16.00;54.30;;;;;;4989371;28;20781;-60
2021/04/19 12:07:02;;;;;;;6.03;5.03;;;16.00;54.20;;;;;;4988389;28;20406;-62
2021/04/19 12:09:28;;;;;;;6.50;4.88;;;15.90;54.90;;;;;;4986325;28;20026;-62
2021/04/19 12:11:54;;;;;;;5.93;4.95;;;15.80;54.60;;;;;;4984425;28;20042;-62
2021/04/19 12:14:19;;;;;;;6.88;5.03;;;15.80;55.10;;;;;;4987471;28;20022;-62
2021/04/19 12:16:48;;;;;;;5.93;5.22;;;15.80;55.00;;;;;;4991833;28;20056;-60
2021/04/19 12:19:14;;;;;;;5.15;4.65;;;15.70;55.50;;;;;;4991293;28;20026;-62
2021/04/19 12:21:40;;;;;;;6.18;4.57;;;15.60;55.30;;;;;;4978994;28;20384;-61
2021/04/19 12:24:06;;;;;;;5.30;4.80;;;15.50;55.40;;;;;;4996220;28;20034;-60
2021/04/19 12:26:32;;;;;;;5.50;4.68;;;15.40;55.60;;;;;;4996051;28;20031;-63
2021/04/19 12:28:58;;;;;;;5.28;4.63;;;15.30;56.00;;;;;;4998737;28;20148;-62
2021/04/19 12:31:24;;;;;;;4.68;3.95;;;15.20;56.00;;;;;;4994000;28;20033;-64
2021/04/19 12:33:49;;;;;;;6.18;4.40;;;15.20;56.00;;;;;;4988310;28;20030;-63
2021/04/19 12:36:16;;;;;;;5.32;4.43;;;15.20;56.20;;;;;;4997461;28;20037;-63
2021/04/19 12:38:42;;;;;;;5.28;4.68;;;15.10;56.10;;;;;;4993688;28;20044;-63
2021/04/19 12:41:08;;;;;;;5.57;4.95;;;15.10;56.40;;;;;;4997871;28;20056;-62
2021/04/19 12:43:34;;;;;;;5.72;4.88;;;15.10;57.10;;;;;;4998755;28;20034;-61
2021/04/19 12:46:00;;;;;;;6.20;4.95;;;15.00;56.60;;;;;;4990503;28;20030;-63
2021/04/19 12:48:26;;;;;;;6.43;4.82;;;15.10;57.00;;;;;;4995544;28;20030;-62
2021/04/19 12:50:51;;;;;;;6.10;5.07;;;15.20;57.00;;;;;;4993880;28;20029;-60
2021/04/19 12:53:17;;;;;;;7.22;5.22;;;15.20;56.90;;;;;;4990244;28;20870;-61
2021/04/19 12:55:43;;;;;;;5.40;4.50;;;15.20;56.70;;;;;;4996278;28;20054;-62
2021/04/19 12:58:11;;;;;;;6.63;5.82;;;15.20;56.50;;;;;;4997416;28;20053;-57
2021/04/19 13:00:37;;;;;;;6.57;5.63;;;15.20;56.70;;;;;;4994923;28;20026;-61
2021/04/19 13:03:03;;;;;;;6.45;5.68;;;15.20;56.70;;;;;;4999077;28;20057;-60